createdAt,value
2022-10-31T00:00:42.282Z,52246.55
2022-10-31T00:03:12.098Z,52233.70
2022-10-31T00:05:44.562Z,52222.04
2022-10-31T00:08:14.340Z,52232.48
2022-10-31T00:10:44.263Z,52236.91
2022-10-31T00:13:14.108Z,52236.51
2022-10-31T00:15:44.050Z,52236.10
2022-10-31T00:18:13.881Z,52248.16
2022-10-31T00:20:43.730Z,52249.36
2022-10-31T00:23:13.470Z,52247.36
2022-10-31T00:25:43.158Z,52231.28
2022-10-31T00:28:13.130Z,52237.71
2022-10-31T00:30:42.918Z,52231.28
2022-10-31T00:33:12.723Z,52238.12
2022-10-31T00:35:42.479Z,52240.12
2022-10-31T00:38:12.172Z,52246.95
2022-10-31T00:40:41.863Z,52234.50
2022-10-31T00:45:46.224Z,52227.66
2022-10-31T00:48:15.933Z,52233.69
2022-10-31T00:50:45.755Z,52239.32
2022-10-31T00:53:15.465Z,52232.89
2022-10-31T00:55:45.215Z,52245.75
2022-10-31T00:58:15.702Z,52233.29
2022-10-31T01:00:48.163Z,52228.07
2022-10-31T01:03:20.928Z,52247.76
2022-10-31T01:05:58.705Z,52228.87
2022-10-31T01:08:28.473Z,52236.10
2022-10-31T01:11:05.791Z,52240.93
2022-10-31T01:13:36.050Z,52246.55
2022-10-31T01:16:06.300Z,52235.30
2022-10-31T01:18:36.222Z,52222.44
2022-10-31T01:21:06.633Z,52232.89
2022-10-31T01:23:36.506Z,52246.15
2022-10-31T01:26:07.580Z,52231.28
2022-10-31T01:28:37.768Z,52240.12
2022-10-31T01:31:08.844Z,52237.71
2022-10-31T01:33:39.140Z,52239.32
2022-10-31T01:36:17.018Z,52249.36
2022-10-31T01:38:46.799Z,52247.36
2022-10-31T01:41:17.431Z,52229.27
2022-10-31T01:43:52.015Z,52243.74
2022-10-31T01:46:22.198Z,52250.17
2022-10-31T01:48:51.952Z,52249.37
2022-10-31T01:51:22.241Z,52248.96
2022-10-31T01:53:52.315Z,52247.36
2022-10-31T01:56:22.048Z,52250.17
2022-10-31T01:58:53.857Z,52261.82
2022-10-31T02:01:23.814Z,52263.83
2022-10-31T02:03:53.693Z,52263.02
2022-10-31T02:06:28.352Z,52242.94
2022-10-31T02:08:58.845Z,52254.59
2022-10-31T02:11:28.797Z,52254.59
2022-10-31T02:13:58.640Z,52254.19
2022-10-31T02:16:28.451Z,52265.44
2022-10-31T02:18:58.304Z,52261.02
2022-10-31T02:21:29.960Z,52259.41
2022-10-31T02:24:16.394Z,52280.31
2022-10-31T02:26:54.029Z,52266.64
2022-10-31T02:29:37.247Z,52267.85
2022-10-31T02:32:07.420Z,52263.03
2022-10-31T02:34:38.907Z,52274.28
2022-10-31T02:37:09.645Z,52262.22
2022-10-31T02:39:39.763Z,52259.82
2022-10-31T02:42:10.671Z,52262.63
2022-10-31T02:44:40.832Z,52267.45
2022-10-31T02:47:11.408Z,52262.63
2022-10-31T02:49:42.749Z,52275.49
2022-10-31T02:52:21.230Z,52277.90
2022-10-31T02:54:51.025Z,52284.33
2022-10-31T02:57:22.421Z,52269.46
2022-10-31T02:59:53.761Z,52279.91
2022-10-31T03:02:36.191Z,52265.04
2022-10-31T03:05:14.753Z,52266.65
2022-10-31T03:07:47.726Z,52268.25
2022-10-31T03:10:19.099Z,52271.87
2022-10-31T03:12:51.123Z,52270.66
2022-10-31T03:15:22.295Z,52277.09
2022-10-31T03:17:56.026Z,52263.43
2022-10-31T03:20:26.711Z,52273.07
2022-10-31T03:22:56.473Z,52277.90
2022-10-31T03:25:26.392Z,52283.12
2022-10-31T03:27:59.759Z,52281.51
2022-10-31T03:30:31.796Z,52297.99
2022-10-31T03:33:02.092Z,52286.74
2022-10-31T03:35:32.444Z,52283.52
2022-10-31T03:38:05.452Z,52272.27
2022-10-31T03:40:37.619Z,52299.20
2022-10-31T03:43:10.117Z,52263.83
2022-10-31T03:45:41.437Z,52280.31
2022-10-31T03:48:11.244Z,52282.32
2022-10-31T03:50:42.058Z,52289.95
2022-10-31T03:53:12.342Z,52280.71
2022-10-31T03:55:42.895Z,52281.52
2022-10-31T03:58:14.970Z,52284.73
2022-10-31T04:00:45.825Z,52293.17
2022-10-31T04:03:17.079Z,52284.73
2022-10-31T04:05:47.957Z,52300.00
2022-10-31T04:08:19.639Z,52301.20
2022-10-31T04:10:49.979Z,52279.51
2022-10-31T04:13:22.262Z,52280.71
2022-10-31T04:15:59.479Z,52295.58
2022-10-31T04:18:29.256Z,52284.32
2022-10-31T04:21:05.873Z,52294.37
2022-10-31T04:23:35.836Z,52286.34
2022-10-31T04:26:11.916Z,52288.35
2022-10-31T04:28:42.106Z,52288.34
2022-10-31T04:31:12.472Z,52310.45
2022-10-31T04:33:42.560Z,52288.35
2022-10-31T04:36:12.320Z,52290.36
2022-10-31T04:38:42.136Z,52286.74
2022-10-31T04:41:34.963Z,52285.13
2022-10-31T04:44:08.055Z,52296.79
2022-10-31T04:46:37.919Z,52297.19
2022-10-31T04:49:07.990Z,52303.62
2022-10-31T04:51:38.402Z,52289.55
2022-10-31T04:54:08.606Z,52290.36
2022-10-31T04:56:56.803Z,52298.39
2022-10-31T04:59:26.578Z,52298.39
2022-10-31T05:01:57.422Z,52286.34
2022-10-31T05:04:36.933Z,52276.69
2022-10-31T05:07:06.655Z,52289.55
2022-10-31T05:09:36.432Z,52284.33
2022-10-31T05:12:06.541Z,52298.79
2022-10-31T05:14:55.111Z,52290.35
2022-10-31T05:17:43.523Z,52278.30
2022-10-31T05:20:45.060Z,52290.76
2022-10-31T05:23:25.356Z,52287.14
2022-10-31T05:25:55.315Z,52290.36
2022-10-31T05:28:25.616Z,52279.10
2022-10-31T05:30:55.453Z,52289.96
2022-10-31T05:33:25.320Z,52293.97
2022-10-31T05:36:13.961Z,52283.92
2022-10-31T05:39:16.261Z,52291.56
2022-10-31T05:41:49.717Z,52289.95
2022-10-31T05:44:23.368Z,52286.74
2022-10-31T05:47:22.745Z,52289.95
2022-10-31T05:50:15.788Z,52272.27
2022-10-31T05:52:59.573Z,52266.65
2022-10-31T05:55:35.995Z,52283.12
2022-10-31T05:58:08.201Z,52274.27
2022-10-31T06:00:39.955Z,52265.84
2022-10-31T06:03:11.405Z,52260.62
2022-10-31T06:06:00.589Z,52259.41
2022-10-31T06:08:41.002Z,52264.23
2022-10-31T06:11:16.199Z,52279.51
2022-10-31T07:32:58.718Z,52277.09
2022-10-31T07:35:41.577Z,52273.88
2022-10-31T07:38:15.264Z,52277.49
2022-10-31T07:40:46.945Z,52288.34
2022-10-31T07:43:16.817Z,52269.46
2022-10-31T07:46:08.755Z,52283.52
2022-10-31T07:49:01.516Z,52276.69
2022-10-31T07:51:51.631Z,52274.28
2022-10-31T07:54:41.552Z,52287.14
2022-10-31T07:57:14.595Z,52273.48
2022-10-31T07:59:48.921Z,52277.09
2022-10-31T08:02:22.306Z,52261.02
2022-10-31T08:04:55.939Z,52287.54
2022-10-31T08:07:50.271Z,52277.49
2022-10-31T08:10:23.695Z,52288.34
2022-10-31T08:13:01.037Z,52278.30
2022-10-31T08:15:35.223Z,52276.70
2022-10-31T08:18:10.481Z,52277.09
2022-10-31T08:20:43.661Z,52287.54
2022-10-31T08:23:17.465Z,52274.68
2022-10-31T08:25:50.124Z,52277.09
2022-10-31T08:28:23.998Z,52288.34
2022-10-31T08:31:02.266Z,52268.25
2022-10-31T08:33:45.920Z,52273.88
2022-10-31T08:36:19.397Z,52269.46
2022-10-31T08:39:07.711Z,52271.47
2022-10-31T08:41:40.541Z,52248.96
2022-10-31T08:44:16.863Z,52248.96
2022-10-31T08:46:48.766Z,52262.63
2022-10-31T08:49:20.204Z,52249.36
2022-10-31T08:51:54.155Z,52259.01
2022-10-31T08:54:31.538Z,52259.82
2022-10-31T08:57:06.833Z,52249.77
2022-10-31T08:59:50.535Z,52261.82
2022-10-31T09:02:41.173Z,52264.63
2022-10-31T09:05:18.827Z,52250.17
2022-10-31T09:07:51.902Z,52273.88
2022-10-31T09:10:29.604Z,52280.71
2022-10-31T09:13:07.688Z,52274.28
2022-10-31T09:15:45.526Z,52252.18
2022-10-31T09:18:26.350Z,52248.96
2022-10-31T09:21:06.767Z,52248.96
2022-10-31T09:23:42.647Z,52257.41
2022-10-31T09:26:21.197Z,52230.07
2022-10-31T09:29:16.355Z,52235.30
2022-10-31T09:31:51.947Z,52242.13
2022-10-31T09:34:34.572Z,52228.87
2022-10-31T09:37:29.526Z,52238.11
2022-10-31T09:40:05.970Z,52236.10
2022-10-31T09:43:01.030Z,52212.39
2022-10-31T09:45:37.397Z,52207.98
2022-10-31T09:48:29.835Z,52228.07
2022-10-31T09:51:23.033Z,52234.90
2022-10-31T09:54:25.833Z,52206.77
2022-10-31T09:57:02.895Z,52239.32
2022-10-31T09:59:37.691Z,52233.69
2022-10-31T10:02:13.977Z,52233.29
2022-10-31T10:04:51.064Z,52236.11
2022-10-31T10:07:29.257Z,52241.73
2022-10-31T10:10:23.847Z,52224.85
2022-10-31T10:13:46.216Z,52209.18
2022-10-31T10:16:28.192Z,52239.32
2022-10-31T10:19:09.204Z,52222.84
2022-10-31T10:21:45.946Z,52205.56
2022-10-31T10:24:28.530Z,52230.07
2022-10-31T10:27:06.348Z,52211.19
2022-10-31T10:29:44.222Z,52216.41
2022-10-31T10:32:21.027Z,52218.42
2022-10-31T10:35:11.232Z,52226.05
2022-10-31T10:37:51.746Z,52220.43
2022-10-31T10:40:27.691Z,52201.54
2022-10-31T10:43:25.928Z,52205.96
2022-10-31T10:46:33.719Z,52216.82
2022-10-31T10:49:13.837Z,52225.66
2022-10-31T10:55:02.270Z,52197.53
2022-10-31T10:57:42.998Z,52214.00
2022-10-31T11:00:22.205Z,52202.75
2022-10-31T11:02:54.113Z,52207.97
2022-10-31T11:05:38.538Z,52193.10
2022-10-31T11:08:10.412Z,52191.90
2022-10-31T11:10:40.106Z,52188.28
2022-10-31T11:13:22.851Z,52198.33
2022-10-31T11:16:01.643Z,52201.55
2022-10-31T11:18:33.961Z,52189.48
2022-10-31T11:21:07.330Z,52198.33
2022-10-31T11:23:39.537Z,52180.25
2022-10-31T11:26:22.960Z,52182.26
2022-10-31T11:29:03.497Z,52196.32
2022-10-31T11:31:35.559Z,52187.88
2022-10-31T11:34:08.065Z,52189.09
2022-10-31T11:36:40.464Z,52181.45
2022-10-31T11:39:19.743Z,52183.05
2022-10-31T11:41:52.022Z,52177.43
2022-10-31T11:44:24.695Z,52194.71
2022-10-31T11:46:57.509Z,52172.61
2022-10-31T11:49:31.382Z,52195.91
2022-10-31T11:52:04.234Z,52172.21
2022-10-31T11:54:38.774Z,52185.87
2022-10-31T11:57:25.292Z,52198.33
2022-10-31T11:59:57.488Z,52178.64
2022-10-31T12:02:29.201Z,52180.24
2022-10-31T12:05:05.556Z,52169.39
2022-10-31T12:07:37.278Z,52186.27
2022-10-31T12:10:12.135Z,52180.65
2022-10-31T12:12:56.237Z,52179.84
2022-10-31T12:15:37.637Z,52180.25
2022-10-31T12:18:25.282Z,52168.20
2022-10-31T12:21:05.786Z,52177.43
2022-10-31T12:23:45.214Z,52178.23
2022-10-31T12:26:19.940Z,52172.21
2022-10-31T12:29:00.304Z,52164.17
2022-10-31T12:31:39.446Z,52161.36
2022-10-31T12:34:37.781Z,52179.04
2022-10-31T12:37:12.158Z,52181.85
2022-10-31T12:39:45.476Z,52155.33
2022-10-31T12:42:22.348Z,52173.01
2022-10-31T12:45:15.143Z,52168.59
2022-10-31T12:48:25.113Z,52167.79
2022-10-31T12:51:00.995Z,52191.90
2022-10-31T12:53:38.632Z,52179.44
2022-10-31T12:56:22.686Z,52153.32
2022-10-31T12:58:56.383Z,52181.85
2022-10-31T13:01:29.951Z,52187.48
2022-10-31T13:04:04.316Z,52178.23
2022-10-31T13:06:42.031Z,52158.95
2022-10-31T13:09:18.267Z,52175.02
2022-10-31T13:11:51.503Z,52181.85
2022-10-31T13:14:26.661Z,52178.64
2022-10-31T13:16:58.450Z,52181.45
2022-10-31T13:19:33.176Z,52210.79
2022-10-31T13:22:07.967Z,52191.90
2022-10-31T13:24:41.789Z,52181.05
2022-10-31T13:27:18.343Z,52185.87
2022-10-31T13:30:03.386Z,52191.10
2022-10-31T13:32:42.162Z,52171.00
2022-10-31T13:35:17.228Z,52184.27
2022-10-31T13:37:54.858Z,52176.23
2022-10-31T13:40:33.245Z,52180.24
2022-10-31T13:43:08.316Z,52187.08
2022-10-31T13:45:49.580Z,52209.98
2022-10-31T13:48:40.104Z,52185.46
2022-10-31T13:51:13.260Z,52176.63
2022-10-31T13:53:47.014Z,52188.28
2022-10-31T13:56:24.972Z,52190.29
2022-10-31T13:59:23.365Z,52214.00
2022-10-31T14:01:56.408Z,52205.16
2022-10-31T14:04:28.887Z,52195.91
2022-10-31T14:07:07.181Z,52213.20
2022-10-31T14:09:39.494Z,52215.61
2022-10-31T14:12:14.689Z,52221.23
2022-10-31T14:14:50.448Z,52220.83
2022-10-31T14:17:24.804Z,52228.87
2022-10-31T14:20:21.387Z,52242.13
2022-10-31T14:22:52.880Z,52248.55
2022-10-31T14:25:32.339Z,52250.57
2022-10-31T14:28:04.987Z,52268.65
2022-10-31T14:54:30.440Z,52261.42
2022-10-31T14:57:03.671Z,52273.88
2022-10-31T14:59:37.639Z,52279.90
2022-10-31T15:02:14.888Z,52278.30
2022-10-31T15:04:46.903Z,52269.05
2022-10-31T15:07:24.488Z,52278.30
2022-10-31T15:47:03.010Z,52302.81
2022-10-31T15:49:39.449Z,52304.82
2022-10-31T15:52:16.939Z,52304.82
2022-10-31T15:54:52.365Z,52303.61
2022-10-31T15:57:24.339Z,52293.17
2022-10-31T15:59:56.122Z,52320.09
2022-10-31T16:02:28.627Z,52311.25
2022-10-31T16:05:01.736Z,52310.05
2022-10-31T16:07:34.248Z,52310.45
2022-10-31T16:10:07.495Z,52305.63
2022-10-31T16:12:40.031Z,52313.66
2022-10-31T16:15:17.224Z,52315.27
2022-10-31T16:17:49.993Z,52314.47
2022-10-31T16:20:24.228Z,52315.27
2022-10-31T16:22:56.774Z,52332.15
2022-10-31T16:25:29.819Z,52309.24
2022-10-31T16:28:04.481Z,52317.68
2022-10-31T16:30:45.400Z,52307.63
2022-10-31T16:33:29.882Z,52327.32
2022-10-31T16:36:30.108Z,52328.94
2022-10-31T16:38:53.478Z,52326.12
2022-10-31T16:41:24.837Z,52320.09
2022-10-31T16:43:56.829Z,52321.30
2022-10-31T16:46:29.191Z,52303.21
2022-10-31T16:49:00.623Z,52316.88
2022-10-31T16:51:32.053Z,52316.48
2022-10-31T16:54:03.803Z,52310.05
2022-10-31T16:56:34.244Z,52334.96
2022-10-31T16:59:05.077Z,52322.10
2022-10-31T17:01:35.953Z,52328.94
2022-10-31T17:04:06.202Z,52319.70
2022-10-31T17:06:37.200Z,52327.73
2022-10-31T17:09:07.351Z,52336.17
2022-10-31T17:11:37.722Z,52336.57
2022-10-31T17:14:07.868Z,52329.34
2022-10-31T17:16:37.791Z,52331.75
2022-10-31T17:19:07.725Z,52315.27
2022-10-31T17:21:37.454Z,52317.28
2022-10-31T17:24:08.187Z,52323.71
2022-10-31T17:26:38.108Z,52330.94
2022-10-31T17:29:08.202Z,52324.11
2022-10-31T17:31:39.496Z,52322.51
2022-10-31T17:34:09.962Z,52335.77
2022-10-31T17:36:40.095Z,52332.95
2022-10-31T17:39:10.967Z,52329.34
2022-10-31T17:41:40.909Z,52322.51
2022-10-31T17:44:12.272Z,52322.91
2022-10-31T17:46:42.203Z,52329.34
2022-10-31T17:49:13.595Z,52320.49
2022-10-31T17:51:43.694Z,52322.10
2022-10-31T17:54:13.844Z,52332.95
2022-10-31T17:56:44.224Z,52346.21
2022-10-31T17:59:13.958Z,52330.95
2022-10-31T18:01:43.894Z,52336.57
2022-10-31T18:04:13.970Z,52333.76
2022-10-31T18:06:43.887Z,52330.14
2022-10-31T18:09:13.924Z,52345.81
2022-10-31T18:11:44.910Z,52330.14
2022-10-31T18:14:16.331Z,52327.32
2022-10-31T18:16:46.894Z,52330.95
2022-10-31T18:19:16.892Z,52341.39
2022-10-31T18:21:47.999Z,52322.91
2022-10-31T18:24:18.480Z,52322.10
2022-10-31T18:26:48.411Z,52349.03
2022-10-31T18:29:19.727Z,52332.95
2022-10-31T18:31:49.483Z,52327.32
2022-10-31T18:34:20.036Z,52340.59
2022-10-31T18:36:49.835Z,52337.77
2022-10-31T18:39:19.646Z,52336.57
2022-10-31T18:41:50.140Z,52356.66
2022-10-31T18:44:20.335Z,52347.82
2022-10-31T18:46:50.263Z,52349.83
2022-10-31T18:49:23.158Z,52350.64
2022-10-31T18:51:53.010Z,52343.40
2022-10-31T18:54:22.797Z,52341.39
2022-10-31T18:56:52.844Z,52349.43
2022-10-31T18:59:22.779Z,52328.93
2022-10-31T19:01:52.733Z,52338.18
2022-10-31T19:04:22.782Z,52334.96
2022-10-31T19:06:52.823Z,52346.21
2022-10-31T19:09:24.958Z,52350.64
2022-10-31T19:11:54.978Z,52340.99
2022-10-31T19:14:24.777Z,52346.21
2022-10-31T19:16:57.107Z,52340.99
2022-10-31T19:19:29.655Z,52337.77
2022-10-31T19:21:59.581Z,52340.99
2022-10-31T19:24:29.302Z,52349.83
2022-10-31T19:27:00.832Z,52335.36
2022-10-31T19:29:30.709Z,52341.39
2022-10-31T19:32:00.368Z,52350.23
2022-10-31T19:34:32.284Z,52334.55
2022-10-31T19:37:02.257Z,52342.60
2022-10-31T19:39:32.415Z,52343.80
2022-10-31T19:42:02.150Z,52340.19
2022-10-31T19:44:32.376Z,52349.83
2022-10-31T19:47:02.064Z,52352.65
2022-10-31T19:49:31.820Z,52349.43
2022-10-31T19:52:01.663Z,52340.99
2022-10-31T19:54:32.309Z,52356.66
2022-10-31T19:57:02.144Z,52339.78
2022-10-31T19:59:36.535Z,52347.02
2022-10-31T20:02:10.278Z,52355.86
2022-10-31T20:04:39.956Z,52336.17
2022-10-31T20:07:09.723Z,52358.68
2022-10-31T20:09:39.490Z,52345.81
2022-10-31T20:12:09.664Z,52357.07
2022-10-31T20:14:40.002Z,52334.56
2022-10-31T20:17:09.877Z,52357.06
2022-10-31T20:19:39.820Z,52349.03
2022-10-31T20:22:09.842Z,52336.97
2022-10-31T20:24:39.589Z,52349.83
2022-10-31T20:27:09.459Z,52350.24
2022-10-31T20:29:39.277Z,52353.05
2022-10-31T20:32:08.993Z,52350.63
2022-10-31T20:34:38.850Z,52345.41
2022-10-31T20:37:08.681Z,52356.66
2022-10-31T20:39:38.341Z,52359.48
2022-10-31T20:42:08.636Z,52362.29
2022-10-31T20:44:38.547Z,52356.66
2022-10-31T20:47:08.373Z,52362.70
2022-10-31T20:49:38.283Z,52357.47
2022-10-31T20:52:08.574Z,52364.30
2022-10-31T20:54:38.396Z,52356.26
2022-10-31T20:57:08.103Z,52368.32
2022-10-31T20:59:38.167Z,52358.27
2022-10-31T21:02:08.787Z,52375.55
2022-10-31T21:04:38.553Z,52354.66
2022-10-31T21:07:08.393Z,52364.70
2022-10-31T21:09:38.224Z,52371.54
2022-10-31T21:12:08.049Z,52383.99
2022-10-31T21:14:38.032Z,52354.65
2022-10-31T21:17:07.818Z,52367.52
2022-10-31T21:19:37.746Z,52368.32
2022-10-31T21:22:07.741Z,52351.44
2022-10-31T21:24:37.730Z,52369.13
2022-10-31T21:27:10.078Z,52367.51
2022-10-31T21:29:42.342Z,52378.36
2022-10-31T21:32:12.900Z,52368.72
2022-10-31T21:34:42.845Z,52366.31
2022-10-31T21:37:14.886Z,52372.74
2022-10-31T21:39:49.632Z,52371.13
2022-10-31T21:42:22.596Z,52377.16
2022-10-31T21:44:52.344Z,52379.57
2022-10-31T21:47:22.013Z,52363.90
2022-10-31T21:49:51.986Z,52367.52
2022-10-31T21:52:21.802Z,52384.40
2022-10-31T21:54:51.803Z,52364.30
2022-10-31T21:59:56.358Z,52373.14
2022-10-31T22:02:26.627Z,52375.96
2022-10-31T22:04:56.365Z,52357.87
2022-10-31T22:07:26.055Z,52380.77
2022-10-31T22:09:55.917Z,52379.57
2022-10-31T22:12:25.651Z,52366.30
2022-10-31T22:14:55.648Z,52375.55
2022-10-31T22:17:25.351Z,52379.57
2022-10-31T22:19:55.881Z,52378.36
2022-10-31T22:22:25.888Z,52367.92
2022-10-31T22:24:55.773Z,52384.79
2022-10-31T22:27:25.618Z,52361.89
2022-10-31T22:29:56.669Z,52385.60
2022-10-31T22:32:27.601Z,52352.24
2022-10-31T22:34:57.246Z,52370.33
2022-10-31T22:37:27.209Z,52383.99
2022-10-31T22:39:56.849Z,52377.56
2022-10-31T22:42:26.961Z,52383.59
2022-10-31T22:44:56.965Z,52372.74
2022-10-31T22:47:26.901Z,52386.80
2022-10-31T22:49:56.642Z,52369.12
2022-10-31T22:52:26.314Z,52374.34
2022-10-31T22:54:58.427Z,52379.17
2022-10-31T22:57:29.280Z,52371.93
2022-10-31T22:59:59.000Z,52384.39
2022-10-31T23:02:30.300Z,52370.33
2022-10-31T23:05:00.186Z,52378.36
2022-10-31T23:07:32.949Z,52371.93
2022-10-31T23:10:03.165Z,52376.76
2022-10-31T23:12:50.505Z,52375.96
2022-10-31T23:15:20.241Z,52373.95
2022-10-31T23:17:50.203Z,52378.37
2022-10-31T23:20:20.262Z,52364.30
2022-10-31T23:22:50.006Z,52381.18
2022-10-31T23:25:37.568Z,52378.37
2022-10-31T23:28:07.419Z,52373.14
2022-10-31T23:30:37.388Z,52373.95
2022-10-31T23:33:07.841Z,52396.45
2022-10-31T23:35:37.499Z,52376.76
2022-10-31T23:38:07.188Z,52389.21
2022-10-31T23:40:39.408Z,52404.48
2022-10-31T23:43:09.119Z,52380.37
2022-10-31T23:45:39.027Z,52386.80
2022-10-31T23:48:09.167Z,52393.23
2022-10-31T23:50:39.506Z,52384.79
2022-10-31T23:53:09.363Z,52376.76
2022-10-31T23:55:40.232Z,52379.57
2022-10-31T23:58:10.454Z,52387.61
